createdAt,value
2022-08-11T00:01:21.131Z,22.92
2022-08-11T00:03:21.128Z,22.92
2022-08-11T00:05:21.149Z,22.88
2022-08-11T00:07:21.249Z,23.06
2022-08-11T00:09:21.268Z,23.18
2022-08-11T00:11:21.168Z,23.16
2022-08-11T00:13:21.169Z,23.20
2022-08-11T00:15:21.233Z,23.29
2022-08-11T00:17:21.142Z,23.15
2022-08-11T00:20:14.529Z,23.23
2022-08-11T00:22:02.068Z,23.16
2022-08-11T00:23:21.089Z,23.26
2022-08-11T00:25:21.124Z,23.18
2022-08-11T00:27:21.102Z,23.13
2022-08-11T00:29:21.084Z,23.13
2022-08-11T00:31:21.148Z,23.09
2022-08-11T00:33:21.245Z,23.17
2022-08-11T00:35:54.680Z,23.13
2022-08-11T00:37:21.193Z,23.14
2022-08-11T00:39:21.352Z,23.17
2022-08-11T00:41:21.297Z,23.16
2022-08-11T00:43:21.324Z,23.10
2022-08-11T00:45:21.167Z,22.95
2022-08-11T00:47:21.284Z,22.82
2022-08-11T00:49:21.130Z,22.77
2022-08-11T00:51:21.137Z,22.74
2022-08-11T00:53:21.192Z,22.82
2022-08-11T00:55:21.171Z,22.83
2022-08-11T00:57:36.078Z,22.79
2022-08-11T00:59:34.971Z,22.92
2022-08-11T01:01:21.331Z,23.01
2022-08-11T01:03:21.309Z,22.96
2022-08-11T01:05:21.169Z,23.01
2022-08-11T01:08:02.071Z,23.03
2022-08-11T01:09:22.674Z,23.01
2022-08-11T01:11:21.145Z,23.06
2022-08-11T01:13:21.294Z,23.02
2022-08-11T01:15:21.176Z,23.03
2022-08-11T01:17:21.194Z,22.99
2022-08-11T01:19:21.294Z,22.98
2022-08-11T01:21:21.317Z,22.99
2022-08-11T01:23:21.196Z,22.98
2022-08-11T01:25:21.178Z,23.09
2022-08-11T01:27:21.138Z,22.97
2022-08-11T01:29:21.186Z,22.96
2022-08-11T01:31:23.439Z,23.05
2022-08-11T01:33:21.197Z,23.01
2022-08-11T01:35:21.180Z,23.03
2022-08-11T01:37:21.192Z,23.09
2022-08-11T01:39:21.386Z,22.74
2022-08-11T01:41:21.244Z,22.78
2022-08-11T01:43:21.205Z,22.68
2022-08-11T01:45:21.332Z,22.73
2022-08-11T01:47:21.274Z,22.70
2022-08-11T01:49:29.034Z,22.73
2022-08-11T01:51:21.353Z,22.70
2022-08-11T01:53:21.191Z,22.95
2022-08-11T01:55:21.347Z,22.95
2022-08-11T01:57:21.351Z,22.95
2022-08-11T01:59:21.242Z,22.97
2022-08-11T02:01:21.310Z,23.00
2022-08-11T02:03:21.356Z,22.95
2022-08-11T02:05:21.447Z,22.95
2022-08-11T02:07:21.357Z,22.94
2022-08-11T02:09:21.319Z,22.94
2022-08-11T02:11:21.273Z,22.92
2022-08-11T02:13:28.660Z,22.99
2022-08-11T02:15:21.259Z,22.91
2022-08-11T02:17:21.364Z,22.95
2022-08-11T02:19:21.242Z,22.95
2022-08-11T02:21:21.243Z,22.92
2022-08-11T02:23:59.661Z,22.95
2022-08-11T02:25:21.292Z,22.87
2022-08-11T02:27:21.341Z,22.85
2022-08-11T02:29:21.339Z,22.84
2022-08-11T02:32:24.094Z,22.72
2022-08-11T02:33:21.400Z,22.69
2022-08-11T02:35:21.305Z,22.67
2022-08-11T02:37:23.743Z,22.67
2022-08-11T02:39:21.472Z,22.67
2022-08-11T02:41:21.397Z,22.64
2022-08-11T02:43:21.242Z,22.65
2022-08-11T02:45:21.415Z,22.82
2022-08-11T02:47:21.310Z,22.83
2022-08-11T02:49:21.500Z,22.85
2022-08-11T02:51:22.271Z,22.90
2022-08-11T02:53:21.447Z,22.83
2022-08-11T02:55:56.799Z,22.84
2022-08-11T02:57:21.280Z,22.87
2022-08-11T02:59:21.443Z,22.85
2022-08-11T03:01:21.468Z,22.85
2022-08-11T03:03:21.322Z,22.87
2022-08-11T03:05:21.330Z,22.94
2022-08-11T03:07:29.123Z,22.91
2022-08-11T03:09:21.474Z,22.91
2022-08-11T03:11:21.296Z,22.87
2022-08-11T03:13:21.313Z,22.87
2022-08-11T03:15:21.457Z,22.95
2022-08-11T03:17:21.316Z,22.92
2022-08-11T03:19:21.369Z,22.92
2022-08-11T03:21:21.450Z,22.96
2022-08-11T03:23:21.385Z,22.73
2022-08-11T03:25:21.386Z,22.66
2022-08-11T03:27:21.325Z,22.64
2022-08-11T03:29:25.215Z,22.63
2022-08-11T03:31:21.326Z,22.59
2022-08-11T03:33:21.293Z,22.64
2022-08-11T03:35:21.747Z,22.58
2022-08-11T03:37:21.313Z,22.82
2022-08-11T03:39:21.519Z,22.81
2022-08-11T03:41:50.253Z,22.82
2022-08-11T03:43:21.470Z,22.79
2022-08-11T03:45:21.420Z,22.79
2022-08-11T03:47:21.505Z,22.79
2022-08-11T03:49:21.346Z,22.81
2022-08-11T03:51:21.486Z,22.84
2022-08-11T03:53:21.330Z,22.88
2022-08-11T03:55:21.417Z,22.82
2022-08-11T03:57:21.521Z,22.81
2022-08-11T03:59:21.408Z,22.81
2022-08-11T04:01:21.633Z,22.57
2022-08-11T04:03:21.390Z,22.46
2022-08-11T04:05:21.365Z,22.68
2022-08-11T04:07:21.386Z,22.63
2022-08-11T04:09:21.379Z,22.62
2022-08-11T04:11:21.378Z,22.57
2022-08-11T04:13:21.464Z,22.60
2022-08-11T04:15:21.400Z,22.45
2022-08-11T04:17:22.775Z,22.43
2022-08-11T04:19:21.437Z,22.44
2022-08-11T04:21:21.446Z,22.49
2022-08-11T04:24:12.865Z,22.48
2022-08-11T04:25:21.520Z,22.44
2022-08-11T04:27:21.368Z,22.40
2022-08-11T04:29:21.541Z,22.63
2022-08-11T04:31:51.830Z,22.68
2022-08-11T04:33:21.443Z,22.84
2022-08-11T04:35:21.668Z,22.80
2022-08-11T04:37:21.410Z,22.78
2022-08-11T04:39:21.617Z,22.78
2022-08-11T04:41:21.420Z,22.70
2022-08-11T04:43:21.573Z,22.67
2022-08-11T04:45:21.575Z,22.74
2022-08-11T04:47:21.569Z,22.73
2022-08-11T04:49:25.562Z,22.82
2022-08-11T04:51:21.380Z,22.79
2022-08-11T04:53:21.496Z,22.72
2022-08-11T04:55:21.595Z,22.78
2022-08-11T04:57:21.541Z,22.87
2022-08-11T04:59:21.421Z,22.83
2022-08-11T05:01:21.481Z,22.80
2022-08-11T05:03:21.405Z,22.92
2022-08-11T05:05:21.448Z,22.79
2022-08-11T05:07:21.463Z,22.56
2022-08-11T05:09:21.447Z,22.55
2022-08-11T05:11:21.493Z,22.55
2022-08-11T05:13:21.489Z,22.55
2022-08-11T05:15:21.406Z,22.59
2022-08-11T05:17:21.597Z,22.58
2022-08-11T05:19:21.462Z,22.52
2022-08-11T05:21:21.609Z,22.74
2022-08-11T05:23:21.631Z,22.82
2022-08-11T05:26:42.987Z,22.82
2022-08-11T05:27:21.608Z,22.83
2022-08-11T05:29:21.489Z,22.82
2022-08-11T05:31:21.643Z,22.91
2022-08-11T05:33:21.627Z,22.88
2022-08-11T05:36:01.779Z,22.88
2022-08-11T05:37:26.330Z,22.88
2022-08-11T05:39:21.771Z,22.88
2022-08-11T05:41:21.520Z,22.85
2022-08-11T05:43:21.510Z,22.90
2022-08-11T05:45:21.614Z,22.88
2022-08-11T05:47:21.602Z,22.91
2022-08-11T05:49:21.637Z,22.94
2022-08-11T05:51:30.050Z,22.96
2022-08-11T05:53:21.518Z,22.98
2022-08-11T05:55:21.601Z,22.96
2022-08-11T05:57:48.874Z,22.98
2022-08-11T05:59:21.486Z,22.65
2022-08-11T06:01:21.609Z,22.55
2022-08-11T06:03:21.466Z,22.56
2022-08-11T06:05:21.542Z,22.56
2022-08-11T06:07:21.627Z,22.55
2022-08-11T06:09:21.556Z,22.55
2022-08-11T06:11:44.281Z,22.56
2022-08-11T06:13:21.725Z,22.72
2022-08-11T06:15:21.627Z,22.87
2022-08-11T06:17:21.452Z,22.96
2022-08-11T06:19:21.680Z,23.02
2022-08-11T06:21:21.699Z,22.98
2022-08-11T06:23:21.522Z,23.05
2022-08-11T06:25:21.597Z,23.12
2022-08-11T06:27:21.678Z,23.13
2022-08-11T06:29:21.506Z,23.22
2022-08-11T06:31:21.525Z,23.26
2022-08-11T06:33:21.526Z,23.34
2022-08-11T06:35:21.543Z,23.42
2022-08-11T06:37:21.519Z,23.53
2022-08-11T06:39:21.623Z,23.59
2022-08-11T06:41:21.662Z,23.70
2022-08-11T06:43:21.524Z,23.68
2022-08-11T06:45:21.623Z,23.72
2022-08-11T06:47:21.725Z,23.81
2022-08-11T06:49:21.689Z,23.96
2022-08-11T06:51:21.549Z,23.95
2022-08-11T06:53:21.519Z,23.36
2022-08-11T06:55:57.563Z,23.26
2022-08-11T06:57:30.704Z,23.25
2022-08-11T06:59:21.698Z,23.26
2022-08-11T07:01:21.644Z,23.38
2022-08-11T07:03:21.558Z,23.42
2022-08-11T07:05:21.712Z,23.55
2022-08-11T07:07:21.616Z,24.00
2022-08-11T07:09:21.572Z,24.12
2022-08-11T07:11:21.589Z,24.20
2022-08-11T07:13:45.068Z,24.20
2022-08-11T07:15:21.655Z,24.28
2022-08-11T07:17:21.572Z,24.30
2022-08-11T07:19:21.612Z,24.30
2022-08-11T07:22:01.757Z,24.10
2022-08-11T07:23:21.644Z,24.38
2022-08-11T07:25:21.636Z,24.28
2022-08-11T07:27:21.645Z,24.41
2022-08-11T07:29:21.643Z,24.48
2022-08-11T07:31:21.756Z,24.56
2022-08-11T07:34:07.958Z,24.53
2022-08-11T07:35:21.632Z,24.61
2022-08-11T07:37:21.753Z,24.56
2022-08-11T07:39:21.837Z,24.61
2022-08-11T07:41:21.608Z,24.66
2022-08-11T07:43:21.936Z,24.68
2022-08-11T07:45:21.607Z,24.37
2022-08-11T07:47:21.644Z,24.38
2022-08-11T07:49:21.764Z,24.40
2022-08-11T07:51:21.645Z,24.43
2022-08-11T07:53:21.790Z,24.52
2022-08-11T07:55:21.763Z,24.51
2022-08-11T07:57:54.064Z,24.64
2022-08-11T07:59:21.640Z,24.94
2022-08-11T08:01:22.844Z,24.94
2022-08-11T08:03:21.643Z,25.00
2022-08-11T08:05:21.872Z,24.97
2022-08-11T08:07:21.622Z,25.05
2022-08-11T08:09:21.624Z,25.10
2022-08-11T08:11:27.616Z,25.18
2022-08-11T08:13:21.818Z,25.21
2022-08-11T08:15:21.809Z,25.24
2022-08-11T08:17:21.782Z,25.23
2022-08-11T08:19:21.769Z,25.29
2022-08-11T08:21:21.856Z,25.29
2022-08-11T08:23:21.816Z,25.33
2022-08-11T08:25:21.768Z,25.42
2022-08-11T08:27:21.805Z,25.04
2022-08-11T08:29:21.892Z,25.40
2022-08-11T08:31:21.813Z,25.51
2022-08-11T08:33:21.822Z,25.47
2022-08-11T08:35:21.643Z,25.61
2022-08-11T08:37:46.240Z,25.33
2022-08-11T08:39:22.032Z,25.46
2022-08-11T08:41:21.635Z,25.37
2022-08-11T08:43:21.796Z,25.47
2022-08-11T08:45:21.693Z,25.47
2022-08-11T08:47:41.568Z,25.38
2022-08-11T08:49:21.845Z,25.39
2022-08-11T08:51:21.908Z,25.56
2022-08-11T08:53:21.834Z,25.95
2022-08-11T08:55:21.955Z,25.99
2022-08-11T08:57:21.777Z,26.07
2022-08-11T08:59:21.805Z,26.09
2022-08-11T09:01:22.063Z,26.22
2022-08-11T09:03:41.071Z,26.19
2022-08-11T09:05:21.746Z,26.27
2022-08-11T09:07:21.911Z,26.03
2022-08-11T09:09:21.889Z,26.20
2022-08-11T09:11:21.766Z,26.49
2022-08-11T09:13:21.882Z,26.52
2022-08-11T09:15:21.873Z,26.61
2022-08-11T09:17:21.825Z,26.77
2022-08-11T09:19:21.903Z,26.76
2022-08-11T09:21:41.750Z,26.22
2022-08-11T09:25:21.908Z,26.79
2022-08-11T09:27:21.742Z,26.79
2022-08-11T09:29:21.720Z,26.77
2022-08-11T09:31:21.983Z,25.52
2022-08-11T09:33:21.799Z,27.06
2022-08-11T09:35:21.822Z,27.24
2022-08-11T09:37:53.736Z,27.22
2022-08-11T09:39:22.010Z,27.36
2022-08-11T09:41:25.692Z,26.89
2022-08-11T09:43:21.879Z,27.07
2022-08-11T09:45:21.854Z,25.38
2022-08-11T09:47:21.922Z,25.52
2022-08-11T09:49:21.913Z,27.27
2022-08-11T09:51:21.953Z,25.50
2022-08-11T09:53:34.825Z,25.46
2022-08-11T09:55:21.818Z,27.35
2022-08-11T09:57:23.484Z,27.18
2022-08-11T09:59:21.938Z,27.19
2022-08-11T10:01:21.812Z,25.47
2022-08-11T10:03:21.786Z,25.40
2022-08-11T10:05:21.756Z,27.36
2022-08-11T10:07:21.925Z,25.37
2022-08-11T10:09:21.932Z,25.31
2022-08-11T10:11:21.780Z,25.33
2022-08-11T10:14:30.817Z,27.32
2022-08-11T10:15:21.843Z,27.23
2022-08-11T10:17:21.829Z,25.49
2022-08-11T10:19:22.009Z,25.42
2022-08-11T10:21:21.789Z,27.32
2022-08-11T10:23:21.784Z,27.23
2022-08-11T10:25:21.839Z,27.42
2022-08-11T10:27:24.954Z,25.51
2022-08-11T10:29:21.807Z,27.42
2022-08-11T10:31:21.879Z,25.52
2022-08-11T10:33:37.098Z,27.41
2022-08-11T10:35:21.797Z,25.52
2022-08-11T10:37:21.853Z,25.51
2022-08-11T10:39:22.043Z,25.42
2022-08-11T10:41:21.908Z,27.17
2022-08-11T10:44:01.343Z,27.47
2022-08-11T10:45:22.034Z,27.35
2022-08-11T10:47:22.062Z,25.52
2022-08-11T10:49:21.819Z,25.51
2022-08-11T10:51:25.653Z,25.52
2022-08-11T10:53:21.845Z,25.58
2022-08-11T10:55:22.089Z,25.52
2022-08-11T10:57:21.828Z,27.41
2022-08-11T10:59:21.848Z,27.50
2022-08-11T11:01:21.969Z,25.49
2022-08-11T11:03:23.675Z,25.65
2022-08-11T11:05:21.887Z,25.53
2022-08-11T11:07:22.057Z,27.44
2022-08-11T11:09:22.000Z,27.34
2022-08-11T11:11:21.836Z,27.30
2022-08-11T11:13:22.003Z,27.49
2022-08-11T11:15:21.881Z,26.62
2022-08-11T11:17:22.026Z,27.42
2022-08-11T11:19:21.962Z,26.07
2022-08-11T11:21:21.877Z,27.49
2022-08-11T11:23:22.009Z,25.79
2022-08-11T11:25:22.020Z,27.49
2022-08-11T11:27:21.862Z,27.47
2022-08-11T11:29:22.021Z,27.39
2022-08-11T11:31:21.981Z,25.51
2022-08-11T11:33:22.043Z,25.52
2022-08-11T11:35:22.178Z,25.52
2022-08-11T11:37:21.987Z,25.56
2022-08-11T11:39:22.109Z,27.36
2022-08-11T11:41:22.034Z,26.59
2022-08-11T11:43:21.870Z,27.46
2022-08-11T11:45:22.696Z,25.37
2022-08-11T11:47:22.197Z,25.52
2022-08-11T11:51:22.148Z,25.52
2022-08-11T11:53:21.934Z,27.34
2022-08-11T11:57:22.041Z,27.36
2022-08-11T11:59:21.952Z,25.83
2022-08-11T12:01:21.908Z,27.39
2022-08-11T12:03:21.933Z,27.55
2022-08-11T12:05:22.062Z,27.52
2022-08-11T12:07:21.978Z,26.85
2022-08-11T12:09:22.057Z,27.39
2022-08-11T12:11:21.905Z,27.33
2022-08-11T12:13:22.112Z,27.49
2022-08-11T12:16:03.446Z,25.44
2022-08-11T12:17:22.083Z,25.40
2022-08-11T12:19:22.040Z,25.45
2022-08-11T12:21:21.931Z,25.44
2022-08-11T12:23:21.943Z,27.42
2022-08-11T12:25:22.091Z,27.41
2022-08-11T12:27:24.091Z,27.50
2022-08-11T12:29:22.071Z,27.34
2022-08-11T12:31:21.902Z,25.57
2022-08-11T12:33:24.135Z,25.56
2022-08-11T12:35:22.001Z,25.58
2022-08-11T12:37:21.927Z,27.60
2022-08-11T12:39:24.244Z,27.51
2022-08-11T12:41:22.176Z,26.61
2022-08-11T12:43:24.195Z,27.53
2022-08-11T12:45:22.695Z,27.46
2022-08-11T12:47:22.154Z,25.52
2022-08-11T12:49:22.013Z,25.60
2022-08-11T12:51:22.112Z,25.63
2022-08-11T12:53:21.932Z,27.39
2022-08-11T12:55:21.914Z,27.42
2022-08-11T12:57:36.860Z,27.46
2022-08-11T12:59:22.016Z,27.42
2022-08-11T13:01:22.079Z,27.40
2022-08-11T13:03:22.251Z,27.28
2022-08-11T13:05:22.145Z,27.50
2022-08-11T13:07:22.023Z,25.52
2022-08-11T13:09:22.196Z,27.46
2022-08-11T13:11:22.046Z,25.63
2022-08-11T13:13:53.509Z,27.47
2022-08-11T13:15:22.167Z,26.38
2022-08-11T13:17:21.986Z,27.50
2022-08-11T13:19:21.987Z,25.89
2022-08-11T13:21:21.981Z,25.92
2022-08-11T13:23:22.049Z,25.80
2022-08-11T13:25:22.141Z,25.90
2022-08-11T13:27:21.976Z,25.77
2022-08-11T13:29:22.237Z,25.92
2022-08-11T13:31:22.133Z,25.99
2022-08-11T13:33:22.049Z,25.96
2022-08-11T13:35:21.998Z,25.95
2022-08-11T13:38:18.458Z,25.98
2022-08-11T13:39:24.190Z,25.93
2022-08-11T13:41:22.005Z,25.89
2022-08-11T13:43:22.208Z,26.05
2022-08-11T13:45:22.108Z,27.45
2022-08-11T13:47:22.018Z,27.49
2022-08-11T13:49:22.166Z,27.45
2022-08-11T13:51:22.267Z,26.57
2022-08-11T13:53:22.008Z,27.38
2022-08-11T13:55:33.414Z,25.55
2022-08-11T13:58:08.177Z,27.52
2022-08-11T13:59:22.986Z,25.86
2022-08-11T14:02:22.365Z,25.98
2022-08-11T14:03:22.090Z,25.99
2022-08-11T14:05:22.188Z,25.64
2022-08-11T14:07:22.054Z,25.72
2022-08-11T14:09:22.066Z,25.75
2022-08-11T14:12:20.385Z,25.75
2022-08-11T14:13:22.087Z,25.64
2022-08-11T14:15:22.171Z,26.08
2022-08-11T14:17:47.344Z,25.90
2022-08-11T14:19:22.085Z,25.81
2022-08-11T14:21:22.204Z,25.45
2022-08-11T14:23:22.125Z,25.77
2022-08-11T14:25:22.050Z,25.79
2022-08-11T14:28:32.695Z,25.83
2022-08-11T14:29:22.247Z,26.03
2022-08-11T14:31:22.117Z,25.89
2022-08-11T14:33:22.213Z,26.00
2022-08-11T14:35:22.270Z,26.00
2022-08-11T14:37:22.066Z,27.49
2022-08-11T14:39:22.174Z,27.51
2022-08-11T14:41:22.100Z,27.53
2022-08-11T14:43:22.248Z,27.47
2022-08-11T14:45:22.626Z,27.39
2022-08-11T14:47:24.114Z,27.47
2022-08-11T14:49:22.162Z,25.65
2022-08-11T14:51:22.142Z,25.86
2022-08-11T14:53:22.236Z,25.83
2022-08-11T14:55:22.150Z,25.91
2022-08-11T14:57:54.433Z,25.65
2022-08-11T14:59:22.042Z,25.84
2022-08-11T15:01:22.351Z,25.96
2022-08-11T15:03:23.952Z,25.96
2022-08-11T15:05:22.090Z,25.91
2022-08-11T15:07:22.132Z,25.91
2022-08-11T15:09:22.310Z,25.91
2022-08-11T15:11:22.133Z,25.86
2022-08-11T15:13:22.297Z,25.81
2022-08-11T15:15:22.447Z,25.65
2022-08-11T15:17:22.345Z,25.81
2022-08-11T15:19:22.166Z,25.92
2022-08-11T15:21:22.283Z,25.80
2022-08-11T15:23:22.183Z,25.79
2022-08-11T15:25:22.111Z,25.78
2022-08-11T15:27:22.297Z,25.95
2022-08-11T15:29:23.613Z,25.80
2022-08-11T15:31:22.203Z,27.42
2022-08-11T15:33:22.165Z,26.65
2022-08-11T15:35:22.176Z,27.50
2022-08-11T15:37:22.295Z,27.65
2022-08-11T15:39:22.246Z,27.70
2022-08-11T15:41:22.115Z,27.64
2022-08-11T15:43:24.689Z,27.67
2022-08-11T15:45:22.406Z,26.03
2022-08-11T15:47:22.381Z,25.86
2022-08-11T15:49:23.714Z,25.78
2022-08-11T15:51:22.334Z,25.91
2022-08-11T15:53:22.425Z,26.09
2022-08-11T15:55:22.314Z,25.60
2022-08-11T15:57:22.372Z,25.65
2022-08-11T15:59:42.166Z,25.88
2022-08-11T16:01:22.355Z,25.84
2022-08-11T16:03:22.267Z,25.86
2022-08-11T16:05:25.110Z,25.75
2022-08-11T16:07:22.197Z,25.89
2022-08-11T16:09:22.224Z,25.65
2022-08-11T16:11:22.368Z,25.61
2022-08-11T16:13:22.165Z,25.52
2022-08-11T16:15:22.163Z,26.08
2022-08-11T16:17:22.167Z,25.61
2022-08-11T16:19:22.308Z,25.84
2022-08-11T16:21:34.042Z,26.02
2022-08-11T16:23:22.181Z,26.48
2022-08-11T16:27:04.427Z,27.54
2022-08-11T16:27:24.491Z,27.46
2022-08-11T16:29:22.206Z,27.42
2022-08-11T16:31:22.217Z,27.21
2022-08-11T16:33:50.762Z,27.42
2022-08-11T16:35:22.267Z,26.02
2022-08-11T16:37:22.345Z,25.62
2022-08-11T16:39:22.435Z,24.83
2022-08-11T16:41:22.426Z,26.38
2022-08-11T16:43:22.366Z,26.92
2022-08-11T16:45:22.228Z,27.51
2022-08-11T16:48:03.586Z,25.52
2022-08-11T16:49:22.204Z,24.90
2022-08-11T16:51:22.400Z,24.79
2022-08-11T16:53:22.170Z,26.49
2022-08-11T16:55:52.226Z,25.65
2022-08-11T16:57:22.357Z,26.76
2022-08-11T16:59:22.214Z,24.92
2022-08-11T17:01:22.369Z,24.94
2022-08-11T17:03:22.396Z,24.76
2022-08-11T17:05:22.293Z,24.55
2022-08-11T17:07:24.011Z,24.63
2022-08-11T17:09:22.317Z,24.52
2022-08-11T17:11:22.366Z,24.40
2022-08-11T17:13:22.408Z,24.41
2022-08-11T17:15:22.248Z,24.39
2022-08-11T17:17:22.203Z,24.34
2022-08-11T17:20:39.863Z,24.40
2022-08-11T17:21:22.284Z,24.20
2022-08-11T17:23:22.267Z,24.09
2022-08-11T17:25:22.456Z,24.05
2022-08-11T17:27:22.230Z,24.05
2022-08-11T17:29:22.304Z,24.10
2022-08-11T17:31:23.164Z,24.08
2022-08-11T17:33:22.463Z,23.96
2022-08-11T17:35:22.340Z,24.17
2022-08-11T17:37:22.412Z,24.20
2022-08-11T17:39:22.351Z,24.21
2022-08-11T17:41:23.720Z,24.20
2022-08-11T17:43:22.487Z,24.12
2022-08-11T17:45:22.238Z,24.14
2022-08-11T17:47:24.549Z,24.10
2022-08-11T17:49:22.252Z,24.04
2022-08-11T17:51:22.448Z,24.01
2022-08-11T17:53:22.289Z,24.06
2022-08-11T17:55:51.081Z,24.01
2022-08-11T17:57:22.536Z,23.96
2022-08-11T17:59:22.306Z,24.05
2022-08-11T18:01:22.401Z,24.02
2022-08-11T18:03:22.285Z,24.01
2022-08-11T18:05:22.304Z,23.96
2022-08-11T18:07:22.335Z,23.91
2022-08-11T18:09:22.478Z,23.74
2022-08-11T18:12:06.426Z,23.79
2022-08-11T18:13:22.386Z,23.69
2022-08-11T18:15:22.372Z,23.77
2022-08-11T18:17:22.458Z,23.73
2022-08-11T18:19:22.480Z,23.84
2022-08-11T18:21:22.453Z,23.81
2022-08-11T18:23:40.720Z,23.89
2022-08-11T18:25:22.522Z,23.80
2022-08-11T18:27:22.477Z,23.90
2022-08-11T18:29:22.580Z,23.70
2022-08-11T18:31:22.457Z,23.97
2022-08-11T18:33:50.520Z,24.10
2022-08-11T18:35:22.498Z,23.96
2022-08-11T18:37:26.015Z,23.97
2022-08-11T18:39:22.489Z,24.02
2022-08-11T18:41:22.394Z,24.01
2022-08-11T18:43:26.491Z,24.08
2022-08-11T18:45:22.506Z,24.01
2022-08-11T18:47:22.489Z,24.01
2022-08-11T18:49:22.417Z,24.04
2022-08-11T18:51:31.265Z,23.96
2022-08-11T18:53:22.505Z,24.04
2022-08-11T18:55:22.353Z,23.90
2022-08-11T18:57:22.545Z,24.01
2022-08-11T18:59:22.508Z,23.98
2022-08-11T19:01:22.666Z,24.04
2022-08-11T19:03:23.832Z,23.98
2022-08-11T19:06:05.162Z,23.93
2022-08-11T19:07:22.507Z,23.73
2022-08-11T19:09:22.364Z,23.65
2022-08-11T19:11:22.384Z,23.59
2022-08-11T19:13:22.550Z,23.65
2022-08-11T19:15:22.398Z,23.63
2022-08-11T19:17:44.949Z,23.54
2022-08-11T19:19:22.470Z,23.61
2022-08-11T19:21:23.255Z,23.57
2022-08-11T19:25:25.710Z,23.81
2022-08-11T19:27:22.404Z,23.81
2022-08-11T19:30:07.667Z,23.84
2022-08-11T19:31:22.593Z,23.82
2022-08-11T19:33:57.341Z,23.83
2022-08-11T19:35:22.448Z,23.88
2022-08-11T19:37:25.011Z,23.83
2022-08-11T19:39:22.478Z,23.84
2022-08-11T19:41:56.235Z,23.77
2022-08-11T19:43:26.186Z,23.81
2022-08-11T19:45:22.508Z,23.78
2022-08-11T19:47:22.605Z,23.77
2022-08-11T19:49:22.422Z,23.81
2022-08-11T19:51:22.607Z,23.81
2022-08-11T19:53:22.496Z,23.82
2022-08-11T19:55:22.439Z,23.76
2022-08-11T19:57:22.416Z,23.81
2022-08-11T19:59:22.439Z,23.55
2022-08-11T20:01:22.658Z,23.47
2022-08-11T20:03:22.460Z,23.42
2022-08-11T20:05:22.862Z,23.49
2022-08-11T20:07:22.881Z,23.48
2022-08-11T20:09:22.619Z,23.40
2022-08-11T20:11:22.719Z,23.44
2022-08-11T20:13:22.679Z,23.40
2022-08-11T20:15:22.930Z,23.39
2022-08-11T20:17:22.723Z,23.57
2022-08-11T20:19:54.452Z,23.68
2022-08-11T20:21:29.819Z,23.56
2022-08-11T20:23:22.713Z,23.61
2022-08-11T20:25:22.548Z,23.69
2022-08-11T20:27:24.659Z,23.65
2022-08-11T20:29:22.550Z,23.56
2022-08-11T20:31:22.741Z,23.59
2022-08-11T20:33:22.528Z,23.58
2022-08-11T20:35:22.782Z,23.53
2022-08-11T20:37:22.497Z,23.68
2022-08-11T20:39:22.644Z,23.56
2022-08-11T20:41:22.534Z,23.53
2022-08-11T20:44:06.610Z,23.57
2022-08-11T20:45:23.505Z,23.58
2022-08-11T20:47:22.762Z,23.59
2022-08-11T20:49:22.805Z,23.53
2022-08-11T20:51:22.911Z,23.53
2022-08-11T20:53:22.733Z,23.25
2022-08-11T20:55:25.898Z,23.25
2022-08-11T20:57:35.530Z,23.24
2022-08-11T20:59:23.230Z,23.27
2022-08-11T21:01:37.537Z,23.26
2022-08-11T21:03:35.586Z,23.23
2022-08-11T21:06:08.735Z,23.26
2022-08-11T21:07:39.348Z,23.31
2022-08-11T21:09:23.808Z,23.48
2022-08-11T21:11:27.735Z,23.52
2022-08-11T21:13:26.790Z,23.49
2022-08-11T21:15:38.973Z,23.44
2022-08-11T21:17:27.842Z,23.47
2022-08-11T21:19:59.941Z,23.51
2022-08-11T21:21:22.703Z,23.50
2022-08-11T21:23:24.280Z,23.47
2022-08-11T21:25:22.670Z,23.49
2022-08-11T21:27:24.787Z,23.52
2022-08-11T21:29:22.690Z,23.50
2022-08-11T21:31:22.684Z,23.49
2022-08-11T21:33:22.569Z,23.44
2022-08-11T21:35:22.669Z,23.42
2022-08-11T21:37:22.745Z,23.41
2022-08-11T21:39:24.883Z,23.49
2022-08-11T21:41:22.720Z,23.43
2022-08-11T21:43:22.619Z,23.44
2022-08-11T21:45:22.689Z,23.09
2022-08-11T21:47:43.397Z,23.18
2022-08-11T21:49:22.742Z,23.12
2022-08-11T21:51:22.717Z,23.13
2022-08-11T21:53:22.703Z,23.10
2022-08-11T21:55:22.721Z,23.08
2022-08-11T21:57:22.710Z,23.14
2022-08-11T21:59:22.609Z,23.11
2022-08-11T22:01:22.678Z,23.28
2022-08-11T22:03:22.739Z,23.38
2022-08-11T22:05:22.588Z,23.38
2022-08-11T22:07:22.566Z,23.38
2022-08-11T22:09:22.572Z,23.38
2022-08-11T22:11:31.962Z,23.41
2022-08-11T22:13:22.634Z,23.42
2022-08-11T22:15:22.631Z,23.40
2022-08-11T22:17:22.601Z,23.38
2022-08-11T22:19:22.636Z,23.34
2022-08-11T22:22:02.869Z,23.38
2022-08-11T22:23:22.694Z,23.49
2022-08-11T22:25:22.555Z,23.35
2022-08-11T22:27:22.785Z,23.39
2022-08-11T22:29:50.222Z,23.33
2022-08-11T22:31:22.616Z,23.42
2022-08-11T22:33:24.490Z,23.36
2022-08-11T22:35:22.601Z,23.39
2022-08-11T22:37:27.458Z,23.09
2022-08-11T22:39:22.661Z,23.07
2022-08-11T22:41:22.676Z,23.03
2022-08-11T22:43:22.736Z,23.11
2022-08-11T22:45:22.770Z,22.98
2022-08-11T22:47:22.688Z,23.05
2022-08-11T22:49:22.767Z,23.10
2022-08-11T22:51:22.656Z,23.01
2022-08-11T22:53:22.643Z,23.23
2022-08-11T22:55:22.698Z,23.31
2022-08-11T22:57:22.762Z,23.38
2022-08-11T22:59:22.783Z,23.34
2022-08-11T23:01:22.720Z,23.36
2022-08-11T23:03:37.120Z,23.34
2022-08-11T23:05:22.757Z,23.31
2022-08-11T23:07:49.414Z,23.38
2022-08-11T23:09:22.807Z,23.30
2022-08-11T23:11:22.743Z,23.33
2022-08-11T23:13:22.691Z,23.24
2022-08-11T23:15:22.672Z,23.27
2022-08-11T23:17:22.632Z,23.31
2022-08-11T23:20:06.333Z,23.25
2022-08-11T23:21:22.817Z,23.26
2022-08-11T23:23:22.728Z,23.20
2022-08-11T23:25:22.705Z,23.25
2022-08-11T23:27:22.819Z,23.20
2022-08-11T23:29:22.786Z,22.97
2022-08-11T23:31:22.684Z,22.99
2022-08-11T23:33:22.733Z,22.96
2022-08-11T23:35:38.630Z,22.96
2022-08-11T23:37:22.704Z,22.96
2022-08-11T23:39:22.727Z,22.96
2022-08-11T23:41:22.822Z,22.87
2022-08-11T23:43:22.672Z,23.11
2022-08-11T23:45:22.926Z,23.33
2022-08-11T23:47:22.771Z,23.33
2022-08-11T23:49:22.734Z,23.34
2022-08-11T23:51:22.821Z,23.25
2022-08-11T23:53:22.857Z,23.35
2022-08-11T23:55:22.850Z,23.35
2022-08-11T23:57:22.713Z,23.34
2022-08-11T23:59:22.696Z,23.37
